sensor_id;sensor_type;location;lat;lon;timestamp;P1;durP1;ratioP1;P2;durP2;ratioP2
55706;SDS011;41608;45.384;20.394;2023-04-03T00:01:18;9.77;;;8.50;;
55706;SDS011;41608;45.384;20.394;2023-04-03T00:03:47;10.95;;;7.53;;
55706;SDS011;41608;45.384;20.394;2023-04-03T00:06:13;12.57;;;7.45;;
55706;SDS011;41608;45.384;20.394;2023-04-03T00:08:39;10.15;;;7.28;;
55706;SDS011;41608;45.384;20.394;2023-04-03T00:11:05;9.70;;;7.72;;
55706;SDS011;41608;45.384;20.394;2023-04-03T00:13:32;9.23;;;7.63;;
55706;SDS011;41608;45.384;20.394;2023-04-03T00:16:00;10.48;;;7.13;;
55706;SDS011;41608;45.384;20.394;2023-04-03T00:18:28;7.57;;;6.32;;
55706;SDS011;41608;45.384;20.394;2023-04-03T00:20:54;9.63;;;7.78;;
55706;SDS011;41608;45.384;20.394;2023-04-03T00:23:23;10.32;;;7.78;;
55706;SDS011;41608;45.384;20.394;2023-04-03T00:25:49;14.73;;;7.53;;
55706;SDS011;41608;45.384;20.394;2023-04-03T00:28:15;9.65;;;8.20;;
55706;SDS011;41608;45.384;20.394;2023-04-03T00:30:41;11.70;;;8.27;;
55706;SDS011;41608;45.384;20.394;2023-04-03T00:33:13;9.05;;;7.07;;
55706;SDS011;41608;45.384;20.394;2023-04-03T00:35:39;11.05;;;8.25;;
55706;SDS011;41608;45.384;20.394;2023-04-03T00:38:08;9.25;;;7.53;;
55706;SDS011;41608;45.384;20.394;2023-04-03T00:40:36;11.00;;;8.85;;
55706;SDS011;41608;45.384;20.394;2023-04-03T00:43:14;12.05;;;8.20;;
55706;SDS011;41608;45.384;20.394;2023-04-03T00:45:42;9.48;;;7.90;;
55706;SDS011;41608;45.384;20.394;2023-04-03T00:48:17;9.55;;;8.35;;
55706;SDS011;41608;45.384;20.394;2023-04-03T00:50:44;12.83;;;8.17;;
55706;SDS011;41608;45.384;20.394;2023-04-03T00:53:12;9.65;;;7.55;;
55706;SDS011;41608;45.384;20.394;2023-04-03T00:55:39;10.85;;;7.97;;
55706;SDS011;41608;45.384;20.394;2023-04-03T00:58:05;9.95;;;8.25;;
55706;SDS011;41608;45.384;20.394;2023-04-03T01:00:32;8.68;;;7.78;;
55706;SDS011;41608;45.384;20.394;2023-04-03T01:02:58;10.23;;;8.40;;
55706;SDS011;41608;45.384;20.394;2023-04-03T01:05:25;9.75;;;7.95;;
55706;SDS011;41608;45.384;20.394;2023-04-03T01:07:51;10.90;;;8.00;;
55706;SDS011;41608;45.384;20.394;2023-04-03T01:10:20;10.65;;;8.25;;
55706;SDS011;41608;45.384;20.394;2023-04-03T01:12:48;9.48;;;8.10;;
55706;SDS011;41608;45.384;20.394;2023-04-03T01:15:22;10.95;;;7.97;;
55706;SDS011;41608;45.384;20.394;2023-04-03T01:17:52;12.43;;;8.35;;
55706;SDS011;41608;45.384;20.394;2023-04-03T01:25:31;10.98;;;7.68;;
55706;SDS011;41608;45.384;20.394;2023-04-03T01:27:57;8.77;;;7.38;;
55706;SDS011;41608;45.384;20.394;2023-04-03T01:30:24;9.38;;;7.03;;
55706;SDS011;41608;45.384;20.394;2023-04-03T01:32:52;11.88;;;7.43;;
55706;SDS011;41608;45.384;20.394;2023-04-03T01:35:18;12.48;;;9.40;;
55706;SDS011;41608;45.384;20.394;2023-04-03T01:37:46;9.38;;;6.28;;
55706;SDS011;41608;45.384;20.394;2023-04-03T01:40:12;13.73;;;8.43;;
55706;SDS011;41608;45.384;20.394;2023-04-03T01:42:38;11.82;;;8.85;;
55706;SDS011;41608;45.384;20.394;2023-04-03T01:45:04;13.30;;;8.63;;
55706;SDS011;41608;45.384;20.394;2023-04-03T01:47:30;12.05;;;7.72;;
55706;SDS011;41608;45.384;20.394;2023-04-03T01:49:56;13.68;;;8.52;;
55706;SDS011;41608;45.384;20.394;2023-04-03T01:52:23;12.40;;;7.88;;
55706;SDS011;41608;45.384;20.394;2023-04-03T01:54:49;14.25;;;9.27;;
55706;SDS011;41608;45.384;20.394;2023-04-03T01:57:15;15.50;;;8.77;;
55706;SDS011;41608;45.384;20.394;2023-04-03T01:59:42;13.15;;;8.73;;
55706;SDS011;41608;45.384;20.394;2023-04-03T02:02:08;13.23;;;8.90;;
55706;SDS011;41608;45.384;20.394;2023-04-03T02:04:34;15.20;;;8.55;;
55706;SDS011;41608;45.384;20.394;2023-04-03T02:07:00;15.30;;;8.52;;
55706;SDS011;41608;45.384;20.394;2023-04-03T02:09:26;13.20;;;7.63;;
55706;SDS011;41608;45.384;20.394;2023-04-03T02:11:52;14.13;;;7.38;;
55706;SDS011;41608;45.384;20.394;2023-04-03T02:14:18;12.98;;;8.52;;
55706;SDS011;41608;45.384;20.394;2023-04-03T02:16:46;13.95;;;8.82;;
55706;SDS011;41608;45.384;20.394;2023-04-03T02:19:12;13.73;;;8.80;;
55706;SDS011;41608;45.384;20.394;2023-04-03T02:21:38;16.30;;;9.93;;
55706;SDS011;41608;45.384;20.394;2023-04-03T02:24:05;13.07;;;8.70;;
55706;SDS011;41608;45.384;20.394;2023-04-03T02:26:31;13.85;;;8.07;;
55706;SDS011;41608;45.384;20.394;2023-04-03T02:28:57;14.70;;;9.13;;
55706;SDS011;41608;45.384;20.394;2023-04-03T02:31:23;15.18;;;7.85;;
55706;SDS011;41608;45.384;20.394;2023-04-03T02:33:49;14.20;;;8.20;;
55706;SDS011;41608;45.384;20.394;2023-04-03T02:36:16;13.45;;;7.88;;
55706;SDS011;41608;45.384;20.394;2023-04-03T02:38:42;13.38;;;7.70;;
55706;SDS011;41608;45.384;20.394;2023-04-03T02:41:09;13.05;;;7.18;;
55706;SDS011;41608;45.384;20.394;2023-04-03T02:43:36;14.60;;;9.68;;
55706;SDS011;41608;45.384;20.394;2023-04-03T02:46:02;17.30;;;11.02;;
55706;SDS011;41608;45.384;20.394;2023-04-03T02:48:28;19.80;;;10.02;;
55706;SDS011;41608;45.384;20.394;2023-04-03T02:50:54;12.23;;;9.27;;
55706;SDS011;41608;45.384;20.394;2023-04-03T02:53:20;8.52;;;5.90;;
55706;SDS011;41608;45.384;20.394;2023-04-03T02:55:47;12.77;;;7.07;;
55706;SDS011;41608;45.384;20.394;2023-04-03T02:58:13;14.60;;;9.48;;
55706;SDS011;41608;45.384;20.394;2023-04-03T03:00:40;14.25;;;10.20;;
55706;SDS011;41608;45.384;20.394;2023-04-03T03:03:06;12.57;;;7.88;;
55706;SDS011;41608;45.384;20.394;2023-04-03T03:05:39;11.50;;;7.00;;
55706;SDS011;41608;45.384;20.394;2023-04-03T03:08:05;10.65;;;6.72;;
55706;SDS011;41608;45.384;20.394;2023-04-03T03:10:31;16.95;;;7.03;;
55706;SDS011;41608;45.384;20.394;2023-04-03T03:12:57;11.77;;;6.97;;
55706;SDS011;41608;45.384;20.394;2023-04-03T03:15:23;9.55;;;5.40;;
55706;SDS011;41608;45.384;20.394;2023-04-03T03:17:49;11.27;;;6.80;;
55706;SDS011;41608;45.384;20.394;2023-04-03T03:20:15;10.35;;;7.47;;
55706;SDS011;41608;45.384;20.394;2023-04-03T03:22:42;9.35;;;6.05;;
55706;SDS011;41608;45.384;20.394;2023-04-03T03:25:08;11.18;;;4.22;;
55706;SDS011;41608;45.384;20.394;2023-04-03T03:27:34;9.18;;;5.25;;
55706;SDS011;41608;45.384;20.394;2023-04-03T03:30:00;9.75;;;6.47;;
55706;SDS011;41608;45.384;20.394;2023-04-03T03:32:31;15.02;;;8.35;;
55706;SDS011;41608;45.384;20.394;2023-04-03T03:34:57;7.93;;;5.28;;
55706;SDS011;41608;45.384;20.394;2023-04-03T03:37:23;7.88;;;6.15;;
55706;SDS011;41608;45.384;20.394;2023-04-03T03:39:49;14.88;;;8.40;;
55706;SDS011;41608;45.384;20.394;2023-04-03T03:42:15;16.60;;;8.80;;
55706;SDS011;41608;45.384;20.394;2023-04-03T03:44:41;24.00;;;9.98;;
55706;SDS011;41608;45.384;20.394;2023-04-03T03:47:07;15.15;;;9.98;;
55706;SDS011;41608;45.384;20.394;2023-04-03T03:49:35;20.63;;;11.18;;
55706;SDS011;41608;45.384;20.394;2023-04-03T03:52:04;19.10;;;12.30;;
55706;SDS011;41608;45.384;20.394;2023-04-03T03:54:30;17.20;;;12.88;;
55706;SDS011;41608;45.384;20.394;2023-04-03T03:56:56;18.10;;;10.90;;
55706;SDS011;41608;45.384;20.394;2023-04-03T03:59:24;19.45;;;11.32;;
55706;SDS011;41608;45.384;20.394;2023-04-03T04:01:51;13.75;;;9.75;;
55706;SDS011;41608;45.384;20.394;2023-04-03T04:04:17;14.48;;;9.68;;
55706;SDS011;41608;45.384;20.394;2023-04-03T04:06:43;9.50;;;6.68;;
55706;SDS011;41608;45.384;20.394;2023-04-03T04:09:09;8.02;;;4.68;;
55706;SDS011;41608;45.384;20.394;2023-04-03T04:11:38;9.65;;;5.88;;
55706;SDS011;41608;45.384;20.394;2023-04-03T04:14:05;6.95;;;5.32;;
55706;SDS011;41608;45.384;20.394;2023-04-03T04:16:31;11.02;;;5.65;;
55706;SDS011;41608;45.384;20.394;2023-04-03T04:18:58;9.38;;;5.32;;
55706;SDS011;41608;45.384;20.394;2023-04-03T04:21:24;11.63;;;6.57;;
55706;SDS011;41608;45.384;20.394;2023-04-03T04:23:50;10.55;;;6.03;;
55706;SDS011;41608;45.384;20.394;2023-04-03T04:26:19;8.43;;;4.82;;
55706;SDS011;41608;45.384;20.394;2023-04-03T04:28:45;11.48;;;5.80;;
55706;SDS011;41608;45.384;20.394;2023-04-03T04:31:11;11.20;;;7.07;;
55706;SDS011;41608;45.384;20.394;2023-04-03T04:33:37;11.80;;;6.75;;
55706;SDS011;41608;45.384;20.394;2023-04-03T04:36:06;7.55;;;5.47;;
55706;SDS011;41608;45.384;20.394;2023-04-03T04:38:34;8.23;;;5.07;;
55706;SDS011;41608;45.384;20.394;2023-04-03T04:41:00;7.15;;;4.20;;
55706;SDS011;41608;45.384;20.394;2023-04-03T04:43:26;11.00;;;5.32;;
55706;SDS011;41608;45.384;20.394;2023-04-03T04:46:06;7.53;;;4.90;;
55706;SDS011;41608;45.384;20.394;2023-04-03T04:48:32;8.13;;;4.50;;
55706;SDS011;41608;45.384;20.394;2023-04-03T04:50:59;8.50;;;4.50;;
55706;SDS011;41608;45.384;20.394;2023-04-03T04:53:25;5.95;;;3.20;;
55706;SDS011;41608;45.384;20.394;2023-04-03T04:55:51;5.38;;;4.03;;
55706;SDS011;41608;45.384;20.394;2023-04-03T04:58:17;8.55;;;4.57;;
55706;SDS011;41608;45.384;20.394;2023-04-03T05:00:43;8.18;;;4.40;;
55706;SDS011;41608;45.384;20.394;2023-04-03T05:03:09;5.13;;;3.85;;
55706;SDS011;41608;45.384;20.394;2023-04-03T05:05:40;6.90;;;4.68;;
55706;SDS011;41608;45.384;20.394;2023-04-03T05:08:11;7.93;;;4.90;;
55706;SDS011;41608;45.384;20.394;2023-04-03T05:10:37;6.50;;;4.15;;
55706;SDS011;41608;45.384;20.394;2023-04-03T05:13:05;6.28;;;4.53;;
55706;SDS011;41608;45.384;20.394;2023-04-03T05:15:31;5.90;;;3.85;;
55706;SDS011;41608;45.384;20.394;2023-04-03T05:17:57;7.75;;;4.70;;
55706;SDS011;41608;45.384;20.394;2023-04-03T05:20:23;6.47;;;3.97;;
55706;SDS011;41608;45.384;20.394;2023-04-03T05:22:50;6.93;;;5.22;;
55706;SDS011;41608;45.384;20.394;2023-04-03T05:25:17;6.18;;;3.85;;
55706;SDS011;41608;45.384;20.394;2023-04-03T05:27:43;6.72;;;4.78;;
55706;SDS011;41608;45.384;20.394;2023-04-03T05:30:09;7.93;;;4.78;;
55706;SDS011;41608;45.384;20.394;2023-04-03T05:32:35;8.27;;;3.92;;
55706;SDS011;41608;45.384;20.394;2023-04-03T05:35:02;7.05;;;3.95;;
55706;SDS011;41608;45.384;20.394;2023-04-03T05:37:33;5.32;;;3.30;;
55706;SDS011;41608;45.384;20.394;2023-04-03T05:39:59;5.50;;;3.25;;
55706;SDS011;41608;45.384;20.394;2023-04-03T05:42:25;6.53;;;4.45;;
55706;SDS011;41608;45.384;20.394;2023-04-03T05:44:56;8.55;;;3.97;;
55706;SDS011;41608;45.384;20.394;2023-04-03T05:47:22;9.75;;;4.35;;
55706;SDS011;41608;45.384;20.394;2023-04-03T05:49:48;5.28;;;3.65;;
55706;SDS011;41608;45.384;20.394;2023-04-03T05:52:26;7.13;;;4.13;;
55706;SDS011;41608;45.384;20.394;2023-04-03T05:54:56;6.60;;;4.28;;
55706;SDS011;41608;45.384;20.394;2023-04-03T05:57:22;5.95;;;4.10;;
55706;SDS011;41608;45.384;20.394;2023-04-03T05:59:48;8.32;;;4.00;;
55706;SDS011;41608;45.384;20.394;2023-04-03T06:02:19;6.90;;;4.22;;
55706;SDS011;41608;45.384;20.394;2023-04-03T06:04:45;6.28;;;3.95;;
55706;SDS011;41608;45.384;20.394;2023-04-03T06:07:13;8.35;;;4.75;;
55706;SDS011;41608;45.384;20.394;2023-04-03T06:09:40;5.65;;;4.20;;
55706;SDS011;41608;45.384;20.394;2023-04-03T06:12:07;8.13;;;3.95;;
55706;SDS011;41608;45.384;20.394;2023-04-03T06:14:33;5.65;;;3.28;;
55706;SDS011;41608;45.384;20.394;2023-04-03T06:16:59;6.43;;;4.28;;
55706;SDS011;41608;45.384;20.394;2023-04-03T06:19:26;5.85;;;3.85;;
55706;SDS011;41608;45.384;20.394;2023-04-03T06:21:55;8.65;;;4.47;;
55706;SDS011;41608;45.384;20.394;2023-04-03T06:24:21;6.70;;;3.63;;
55706;SDS011;41608;45.384;20.394;2023-04-03T06:26:49;5.32;;;3.25;;
55706;SDS011;41608;45.384;20.394;2023-04-03T06:29:16;8.27;;;5.38;;
55706;SDS011;41608;45.384;20.394;2023-04-03T06:31:42;10.25;;;6.35;;
55706;SDS011;41608;45.384;20.394;2023-04-03T06:34:09;6.38;;;3.05;;
55706;SDS011;41608;45.384;20.394;2023-04-03T06:36:36;5.80;;;3.25;;
55706;SDS011;41608;45.384;20.394;2023-04-03T06:39:03;8.20;;;3.95;;
55706;SDS011;41608;45.384;20.394;2023-04-03T06:41:29;6.28;;;3.35;;
55706;SDS011;41608;45.384;20.394;2023-04-03T06:43:56;8.65;;;3.83;;
55706;SDS011;41608;45.384;20.394;2023-04-03T06:46:25;6.30;;;3.97;;
55706;SDS011;41608;45.384;20.394;2023-04-03T06:48:52;7.40;;;4.53;;
55706;SDS011;41608;45.384;20.394;2023-04-03T06:53:48;3.85;;;2.78;;
55706;SDS011;41608;45.384;20.394;2023-04-03T06:56:16;6.43;;;3.97;;
55706;SDS011;41608;45.384;20.394;2023-04-03T06:58:47;6.28;;;3.95;;
55706;SDS011;41608;45.384;20.394;2023-04-03T07:01:13;5.70;;;4.30;;
55706;SDS011;41608;45.384;20.394;2023-04-03T07:03:40;7.45;;;5.10;;
55706;SDS011;41608;45.384;20.394;2023-04-03T07:06:09;6.70;;;3.45;;
55706;SDS011;41608;45.384;20.394;2023-04-03T07:08:36;8.98;;;4.03;;
55706;SDS011;41608;45.384;20.394;2023-04-03T07:11:03;7.72;;;4.78;;
55706;SDS011;41608;45.384;20.394;2023-04-03T07:13:34;5.80;;;3.75;;
55706;SDS011;41608;45.384;20.394;2023-04-03T07:16:00;6.40;;;3.65;;
55706;SDS011;41608;45.384;20.394;2023-04-03T07:18:30;5.50;;;3.22;;
55706;SDS011;41608;45.384;20.394;2023-04-03T07:20:56;5.25;;;3.28;;
55706;SDS011;41608;45.384;20.394;2023-04-03T07:23:25;8.13;;;3.50;;
55706;SDS011;41608;45.384;20.394;2023-04-03T07:25:51;6.75;;;3.55;;
55706;SDS011;41608;45.384;20.394;2023-04-03T07:28:18;5.93;;;4.05;;
55706;SDS011;41608;45.384;20.394;2023-04-03T07:30:48;3.60;;;2.60;;
55706;SDS011;41608;45.384;20.394;2023-04-03T07:33:18;7.90;;;4.78;;
55706;SDS011;41608;45.384;20.394;2023-04-03T07:35:45;6.93;;;4.00;;
55706;SDS011;41608;45.384;20.394;2023-04-03T07:38:11;4.20;;;3.10;;
55706;SDS011;41608;45.384;20.394;2023-04-03T07:40:38;5.47;;;3.72;;
55706;SDS011;41608;45.384;20.394;2023-04-03T07:43:04;7.60;;;4.50;;
55706;SDS011;41608;45.384;20.394;2023-04-03T07:45:34;7.47;;;3.58;;
55706;SDS011;41608;45.384;20.394;2023-04-03T07:48:00;5.00;;;3.38;;
55706;SDS011;41608;45.384;20.394;2023-04-03T07:50:26;8.27;;;4.50;;
55706;SDS011;41608;45.384;20.394;2023-04-03T07:52:53;8.18;;;3.83;;
55706;SDS011;41608;45.384;20.394;2023-04-03T07:55:22;5.35;;;3.70;;
55706;SDS011;41608;45.384;20.394;2023-04-03T07:57:49;3.85;;;2.92;;
55706;SDS011;41608;45.384;20.394;2023-04-03T08:00:17;4.68;;;2.63;;
55706;SDS011;41608;45.384;20.394;2023-04-03T08:02:44;4.32;;;3.08;;
55706;SDS011;41608;45.384;20.394;2023-04-03T08:05:15;5.28;;;3.35;;
55706;SDS011;41608;45.384;20.394;2023-04-03T08:07:42;5.28;;;3.25;;
55706;SDS011;41608;45.384;20.394;2023-04-03T08:10:08;5.57;;;3.20;;
55706;SDS011;41608;45.384;20.394;2023-04-03T08:12:34;3.53;;;2.22;;
55706;SDS011;41608;45.384;20.394;2023-04-03T08:15:03;2.95;;;2.40;;
55706;SDS011;41608;45.384;20.394;2023-04-03T08:17:29;4.00;;;2.40;;
55706;SDS011;41608;45.384;20.394;2023-04-03T08:19:55;3.63;;;2.72;;
55706;SDS011;41608;45.384;20.394;2023-04-03T08:22:21;4.18;;;3.15;;
55706;SDS011;41608;45.384;20.394;2023-04-03T08:24:47;10.90;;;3.45;;
55706;SDS011;41608;45.384;20.394;2023-04-03T08:27:18;7.00;;;3.10;;
55706;SDS011;41608;45.384;20.394;2023-04-03T08:29:49;5.20;;;3.47;;
55706;SDS011;41608;45.384;20.394;2023-04-03T08:32:16;4.60;;;3.28;;
55706;SDS011;41608;45.384;20.394;2023-04-03T08:34:42;4.60;;;3.22;;
55706;SDS011;41608;45.384;20.394;2023-04-03T08:37:09;4.45;;;3.17;;
55706;SDS011;41608;45.384;20.394;2023-04-03T08:39:37;3.88;;;2.83;;
55706;SDS011;41608;45.384;20.394;2023-04-03T08:42:05;5.18;;;3.67;;
55706;SDS011;41608;45.384;20.394;2023-04-03T08:44:42;4.18;;;2.65;;
55706;SDS011;41608;45.384;20.394;2023-04-03T08:49:48;4.47;;;2.72;;
55706;SDS011;41608;45.384;20.394;2023-04-03T08:52:19;5.03;;;3.70;;
55706;SDS011;41608;45.384;20.394;2023-04-03T08:57:17;4.70;;;2.58;;
55706;SDS011;41608;45.384;20.394;2023-04-03T08:59:46;6.95;;;2.67;;
55706;SDS011;41608;45.384;20.394;2023-04-03T09:02:17;4.47;;;2.33;;
55706;SDS011;41608;45.384;20.394;2023-04-03T09:04:46;5.55;;;3.15;;
55706;SDS011;41608;45.384;20.394;2023-04-03T09:07:16;5.38;;;2.67;;
55706;SDS011;41608;45.384;20.394;2023-04-03T09:09:45;3.67;;;2.42;;
55706;SDS011;41608;45.384;20.394;2023-04-03T09:12:28;5.72;;;3.05;;
55706;SDS011;41608;45.384;20.394;2023-04-03T09:15:09;3.80;;;2.28;;
55706;SDS011;41608;45.384;20.394;2023-04-03T09:18:15;6.00;;;2.97;;
55706;SDS011;41608;45.384;20.394;2023-04-03T09:25:42;9.43;;;3.83;;
55706;SDS011;41608;45.384;20.394;2023-04-03T09:28:09;6.28;;;3.15;;
55706;SDS011;41608;45.384;20.394;2023-04-03T09:30:35;8.68;;;4.13;;
55706;SDS011;41608;45.384;20.394;2023-04-03T09:33:02;7.22;;;3.40;;
55706;SDS011;41608;45.384;20.394;2023-04-03T09:35:29;7.50;;;3.75;;
55706;SDS011;41608;45.384;20.394;2023-04-03T09:40:36;6.85;;;4.22;;
55706;SDS011;41608;45.384;20.394;2023-04-03T09:45:42;4.65;;;2.65;;
55706;SDS011;41608;45.384;20.394;2023-04-03T09:53:25;4.25;;;2.63;;
55706;SDS011;41608;45.384;20.394;2023-04-03T09:55:51;3.92;;;2.40;;
55706;SDS011;41608;45.384;20.394;2023-04-03T09:58:38;4.45;;;3.03;;
55706;SDS011;41608;45.384;20.394;2023-04-03T10:01:10;3.63;;;2.20;;
55706;SDS011;41608;45.384;20.394;2023-04-03T10:03:50;4.35;;;3.13;;
55706;SDS011;41608;45.384;20.394;2023-04-03T10:06:30;3.72;;;2.38;;
55706;SDS011;41608;45.384;20.394;2023-04-03T10:09:14;4.80;;;2.85;;
55706;SDS011;41608;45.384;20.394;2023-04-03T10:11:56;6.95;;;2.95;;
55706;SDS011;41608;45.384;20.394;2023-04-03T10:14:26;6.53;;;2.22;;
55706;SDS011;41608;45.384;20.394;2023-04-03T10:22:22;3.58;;;1.55;;
55706;SDS011;41608;45.384;20.394;2023-04-03T10:27:29;5.32;;;2.65;;
55706;SDS011;41608;45.384;20.394;2023-04-03T10:30:12;5.03;;;1.95;;
55706;SDS011;41608;45.384;20.394;2023-04-03T10:35:30;3.83;;;2.47;;
55706;SDS011;41608;45.384;20.394;2023-04-03T10:41:04;5.15;;;3.30;;
55706;SDS011;41608;45.384;20.394;2023-04-03T10:46:13;5.13;;;2.85;;
55706;SDS011;41608;45.384;20.394;2023-04-03T10:49:01;6.80;;;3.60;;
55706;SDS011;41608;45.384;20.394;2023-04-03T10:51:57;2.90;;;2.13;;
55706;SDS011;41608;45.384;20.394;2023-04-03T10:54:24;3.40;;;2.33;;
55706;SDS011;41608;45.384;20.394;2023-04-03T10:56:55;4.97;;;2.40;;
55706;SDS011;41608;45.384;20.394;2023-04-03T11:04:39;5.28;;;2.67;;
55706;SDS011;41608;45.384;20.394;2023-04-03T11:07:10;3.10;;;2.28;;
55706;SDS011;41608;45.384;20.394;2023-04-03T11:09:39;4.00;;;2.22;;
55706;SDS011;41608;45.384;20.394;2023-04-03T11:12:14;3.53;;;2.15;;
55706;SDS011;41608;45.384;20.394;2023-04-03T11:22:22;4.60;;;2.60;;
55706;SDS011;41608;45.384;20.394;2023-04-03T11:27:41;4.50;;;2.50;;
55706;SDS011;41608;45.384;20.394;2023-04-03T11:30:13;3.45;;;3.13;;
55706;SDS011;41608;45.384;20.394;2023-04-03T11:32:48;3.58;;;2.20;;
55706;SDS011;41608;45.384;20.394;2023-04-03T11:35:17;3.08;;;2.05;;
55706;SDS011;41608;45.384;20.394;2023-04-03T11:37:45;4.07;;;2.75;;
55706;SDS011;41608;45.384;20.394;2023-04-03T11:42:48;3.88;;;2.60;;
55706;SDS011;41608;45.384;20.394;2023-04-03T11:47:47;5.57;;;2.88;;
55706;SDS011;41608;45.384;20.394;2023-04-03T11:52:58;3.55;;;2.17;;
55706;SDS011;41608;45.384;20.394;2023-04-03T12:05:57;4.38;;;2.00;;
55706;SDS011;41608;45.384;20.394;2023-04-03T12:08:30;2.80;;;1.70;;
55706;SDS011;41608;45.384;20.394;2023-04-03T12:13:35;3.67;;;1.55;;
55706;SDS011;41608;45.384;20.394;2023-04-03T12:16:04;3.05;;;2.00;;
55706;SDS011;41608;45.384;20.394;2023-04-03T12:18:55;2.78;;;1.80;;
55706;SDS011;41608;45.384;20.394;2023-04-03T12:26:22;2.75;;;1.60;;
55706;SDS011;41608;45.384;20.394;2023-04-03T12:28:51;3.13;;;1.75;;
55706;SDS011;41608;45.384;20.394;2023-04-03T12:31:18;6.45;;;2.88;;
55706;SDS011;41608;45.384;20.394;2023-04-03T12:39:04;4.20;;;2.00;;
55706;SDS011;41608;45.384;20.394;2023-04-03T12:41:42;5.07;;;2.25;;
55706;SDS011;41608;45.384;20.394;2023-04-03T12:46:38;3.30;;;2.05;;
55706;SDS011;41608;45.384;20.394;2023-04-03T12:49:41;3.30;;;1.67;;
55706;SDS011;41608;45.384;20.394;2023-04-03T12:52:00;2.50;;;1.80;;
55706;SDS011;41608;45.384;20.394;2023-04-03T12:54:35;3.80;;;2.10;;
55706;SDS011;41608;45.384;20.394;2023-04-03T12:57:08;3.05;;;1.83;;
55706;SDS011;41608;45.384;20.394;2023-04-03T12:59:36;1.83;;;1.45;;
55706;SDS011;41608;45.384;20.394;2023-04-03T13:02:03;3.05;;;2.08;;
55706;SDS011;41608;45.384;20.394;2023-04-03T13:04:37;3.42;;;2.13;;
55706;SDS011;41608;45.384;20.394;2023-04-03T13:07:04;3.05;;;2.00;;
55706;SDS011;41608;45.384;20.394;2023-04-03T13:09:31;3.47;;;1.30;;
55706;SDS011;41608;45.384;20.394;2023-04-03T13:14:24;3.90;;;1.75;;
55706;SDS011;41608;45.384;20.394;2023-04-03T13:16:58;2.15;;;1.30;;
55706;SDS011;41608;45.384;20.394;2023-04-03T13:19:25;3.83;;;2.10;;
55706;SDS011;41608;45.384;20.394;2023-04-03T13:22:02;4.07;;;1.70;;
55706;SDS011;41608;45.384;20.394;2023-04-03T13:24:30;3.22;;;1.80;;
55706;SDS011;41608;45.384;20.394;2023-04-03T13:26:58;3.10;;;1.92;;
55706;SDS011;41608;45.384;20.394;2023-04-03T13:29:29;5.15;;;2.55;;
55706;SDS011;41608;45.384;20.394;2023-04-03T13:31:56;3.03;;;1.80;;
55706;SDS011;41608;45.384;20.394;2023-04-03T13:34:23;3.55;;;1.80;;
55706;SDS011;41608;45.384;20.394;2023-04-03T13:41:47;4.88;;;3.53;;
55706;SDS011;41608;45.384;20.394;2023-04-03T13:46:54;4.65;;;2.90;;
55706;SDS011;41608;45.384;20.394;2023-04-03T13:49:37;6.75;;;3.55;;
55706;SDS011;41608;45.384;20.394;2023-04-03T13:54:53;5.53;;;3.40;;
55706;SDS011;41608;45.384;20.394;2023-04-03T13:57:20;5.43;;;3.03;;
55706;SDS011;41608;45.384;20.394;2023-04-03T13:59:46;4.20;;;2.65;;
55706;SDS011;41608;45.384;20.394;2023-04-03T14:07:13;8.52;;;3.90;;
55706;SDS011;41608;45.384;20.394;2023-04-03T14:09:39;3.83;;;2.97;;
55706;SDS011;41608;45.384;20.394;2023-04-03T14:12:06;4.05;;;2.50;;
55706;SDS011;41608;45.384;20.394;2023-04-03T14:14:34;6.78;;;2.95;;
55706;SDS011;41608;45.384;20.394;2023-04-03T14:17:02;6.13;;;2.75;;
55706;SDS011;41608;45.384;20.394;2023-04-03T14:19:34;6.25;;;3.00;;
55706;SDS011;41608;45.384;20.394;2023-04-03T14:22:03;5.88;;;3.15;;
55706;SDS011;41608;45.384;20.394;2023-04-03T14:24:32;4.32;;;2.80;;
55706;SDS011;41608;45.384;20.394;2023-04-03T14:26:58;10.60;;;4.50;;
55706;SDS011;41608;45.384;20.394;2023-04-03T14:29:25;8.30;;;4.70;;
55706;SDS011;41608;45.384;20.394;2023-04-03T14:31:51;7.10;;;3.75;;
55706;SDS011;41608;45.384;20.394;2023-04-03T14:34:17;7.53;;;4.25;;
55706;SDS011;41608;45.384;20.394;2023-04-03T14:36:44;5.63;;;3.25;;
55706;SDS011;41608;45.384;20.394;2023-04-03T14:39:15;6.18;;;3.70;;
55706;SDS011;41608;45.384;20.394;2023-04-03T14:41:42;5.38;;;2.78;;
55706;SDS011;41608;45.384;20.394;2023-04-03T14:44:09;5.22;;;2.70;;
55706;SDS011;41608;45.384;20.394;2023-04-03T14:46:36;6.15;;;2.65;;
55706;SDS011;41608;45.384;20.394;2023-04-03T14:49:03;4.97;;;2.10;;
55706;SDS011;41608;45.384;20.394;2023-04-03T14:51:32;9.68;;;3.60;;
55706;SDS011;41608;45.384;20.394;2023-04-03T14:54:02;6.07;;;3.53;;
55706;SDS011;41608;45.384;20.394;2023-04-03T14:56:28;5.93;;;3.50;;
55706;SDS011;41608;45.384;20.394;2023-04-03T14:58:56;4.45;;;2.75;;
55706;SDS011;41608;45.384;20.394;2023-04-03T15:01:22;5.35;;;2.92;;
55706;SDS011;41608;45.384;20.394;2023-04-03T15:03:49;6.55;;;3.05;;
55706;SDS011;41608;45.384;20.394;2023-04-03T15:06:15;3.97;;;2.55;;
55706;SDS011;41608;45.384;20.394;2023-04-03T15:08:42;5.38;;;2.28;;
55706;SDS011;41608;45.384;20.394;2023-04-03T15:11:09;4.18;;;1.90;;
55706;SDS011;41608;45.384;20.394;2023-04-03T15:13:35;4.72;;;2.00;;
55706;SDS011;41608;45.384;20.394;2023-04-03T15:16:02;2.58;;;1.63;;
55706;SDS011;41608;45.384;20.394;2023-04-03T15:18:29;2.47;;;1.70;;
55706;SDS011;41608;45.384;20.394;2023-04-03T15:20:57;4.82;;;2.22;;
55706;SDS011;41608;45.384;20.394;2023-04-03T15:23:23;2.25;;;1.63;;
55706;SDS011;41608;45.384;20.394;2023-04-03T15:25:53;3.55;;;1.88;;
55706;SDS011;41608;45.384;20.394;2023-04-03T15:28:36;2.20;;;1.45;;
55706;SDS011;41608;45.384;20.394;2023-04-03T15:31:03;1.80;;;1.58;;
55706;SDS011;41608;45.384;20.394;2023-04-03T15:33:30;4.50;;;1.73;;
55706;SDS011;41608;45.384;20.394;2023-04-03T15:35:56;4.55;;;2.60;;
55706;SDS011;41608;45.384;20.394;2023-04-03T15:38:22;3.55;;;2.38;;
55706;SDS011;41608;45.384;20.394;2023-04-03T15:40:48;2.53;;;1.90;;
55706;SDS011;41608;45.384;20.394;2023-04-03T15:43:16;2.60;;;1.33;;
55706;SDS011;41608;45.384;20.394;2023-04-03T15:45:43;4.60;;;1.90;;
55706;SDS011;41608;45.384;20.394;2023-04-03T15:48:09;2.63;;;1.90;;
55706;SDS011;41608;45.384;20.394;2023-04-03T15:50:36;2.60;;;2.00;;
55706;SDS011;41608;45.384;20.394;2023-04-03T15:53:02;3.42;;;2.35;;
55706;SDS011;41608;45.384;20.394;2023-04-03T15:55:29;2.60;;;2.03;;
55706;SDS011;41608;45.384;20.394;2023-04-03T15:57:56;2.78;;;1.80;;
55706;SDS011;41608;45.384;20.394;2023-04-03T16:00:23;4.70;;;1.65;;
55706;SDS011;41608;45.384;20.394;2023-04-03T16:02:50;5.45;;;2.25;;
55706;SDS011;41608;45.384;20.394;2023-04-03T16:05:19;3.00;;;1.92;;
55706;SDS011;41608;45.384;20.394;2023-04-03T16:07:48;5.32;;;1.73;;
55706;SDS011;41608;45.384;20.394;2023-04-03T16:10:15;10.60;;;2.65;;
55706;SDS011;41608;45.384;20.394;2023-04-03T16:12:41;3.85;;;2.00;;
55706;SDS011;41608;45.384;20.394;2023-04-03T16:15:07;3.55;;;2.15;;
55706;SDS011;41608;45.384;20.394;2023-04-03T16:17:34;4.47;;;1.90;;
55706;SDS011;41608;45.384;20.394;2023-04-03T16:20:01;3.38;;;2.33;;
55706;SDS011;41608;45.384;20.394;2023-04-03T16:22:28;7.40;;;2.90;;
55706;SDS011;41608;45.384;20.394;2023-04-03T16:24:54;3.72;;;2.55;;
55706;SDS011;41608;45.384;20.394;2023-04-03T16:27:21;3.03;;;2.35;;
55706;SDS011;41608;45.384;20.394;2023-04-03T16:29:47;5.80;;;2.60;;